createdAt,value
2022-10-21T00:00:41.371Z,23.50
2022-10-21T00:01:43.643Z,23.50
2022-10-21T00:02:46.472Z,23.50
2022-10-21T00:03:48.798Z,23.50
2022-10-21T00:04:51.086Z,23.40
2022-10-21T00:05:53.943Z,23.40
2022-10-21T00:06:56.299Z,23.40
2022-10-21T00:07:58.715Z,23.40
2022-10-21T00:09:01.087Z,23.40
2022-10-21T00:10:04.743Z,23.40
2022-10-21T00:11:09.304Z,23.40
2022-10-21T00:12:11.620Z,23.30
2022-10-21T00:13:14.000Z,23.30
2022-10-21T00:14:16.477Z,23.30
2022-10-21T00:15:18.906Z,23.30
2022-10-21T00:16:21.248Z,23.30
2022-10-21T00:17:23.695Z,23.30
2022-10-21T00:18:26.094Z,23.20
2022-10-21T00:19:28.379Z,23.20
2022-10-21T00:20:31.910Z,23.20
2022-10-21T00:21:36.830Z,23.20
2022-10-21T00:22:39.705Z,23.20
2022-10-21T00:23:43.589Z,23.20
2022-10-21T00:24:45.919Z,23.20
2022-10-21T00:25:48.239Z,23.20
2022-10-21T00:26:51.088Z,23.20
2022-10-21T00:27:53.396Z,23.20
2022-10-21T00:28:56.848Z,23.20
2022-10-21T00:29:59.124Z,23.20
2022-10-21T00:31:01.808Z,23.20
2022-10-21T00:32:04.129Z,23.10
2022-10-21T00:33:06.653Z,23.10
2022-10-21T00:34:09.169Z,23.10
2022-10-21T00:35:11.616Z,23.10
2022-10-21T00:36:16.981Z,23.10
2022-10-21T00:37:19.261Z,23.10
2022-10-21T00:39:29.439Z,23.10
2022-10-21T00:40:32.289Z,23.10
2022-10-21T00:41:34.581Z,23.10
2022-10-21T00:42:43.748Z,23.10
2022-10-21T00:44:08.438Z,23.10
2022-10-21T00:45:18.690Z,23.00
2022-10-21T00:46:34.896Z,23.00
2022-10-21T00:47:51.620Z,23.00
2022-10-21T00:48:59.304Z,23.00
2022-10-21T00:50:04.854Z,23.00
2022-10-21T00:51:14.480Z,23.00
2022-10-21T00:52:22.309Z,23.00
2022-10-21T00:53:25.745Z,23.00
2022-10-21T00:54:30.011Z,23.00
2022-10-21T00:55:39.139Z,23.00
2022-10-21T00:56:43.651Z,23.00
2022-10-21T00:57:46.311Z,23.00
2022-10-21T00:58:49.265Z,22.90
2022-10-21T00:59:59.224Z,22.90
2022-10-21T01:01:04.930Z,22.90
2022-10-21T01:02:07.540Z,22.90
2022-10-21T01:03:09.916Z,22.80
2022-10-21T01:04:12.267Z,22.80
2022-10-21T01:05:15.979Z,22.80
2022-10-21T01:06:21.687Z,22.80
2022-10-21T01:07:24.358Z,22.70
2022-10-21T01:08:27.751Z,22.70
2022-10-21T01:09:30.650Z,22.70
2022-10-21T01:10:33.133Z,22.70
2022-10-21T01:11:44.629Z,22.60
2022-10-21T01:12:56.845Z,22.60
2022-10-21T01:14:04.655Z,22.60
2022-10-21T01:15:42.398Z,22.50
2022-10-21T01:17:20.683Z,22.50
2022-10-21T01:18:39.793Z,22.50
2022-10-21T01:20:05.108Z,22.60
2022-10-21T01:21:25.425Z,22.60
2022-10-21T01:22:51.697Z,22.70
2022-10-21T01:24:35.019Z,22.70
2022-10-21T01:26:14.625Z,22.70
2022-10-21T01:27:39.645Z,22.70
2022-10-21T01:28:59.962Z,22.80
2022-10-21T01:30:17.235Z,22.80
2022-10-21T01:31:28.185Z,22.80
2022-10-21T01:32:48.210Z,22.80
2022-10-21T01:34:23.669Z,22.80
2022-10-21T01:35:56.087Z,22.80
2022-10-21T01:37:37.686Z,22.90
2022-10-21T01:39:04.137Z,22.90
2022-10-21T01:40:30.687Z,22.90
2022-10-21T01:41:43.014Z,22.90
2022-10-21T01:42:51.489Z,22.90
2022-10-21T01:44:04.137Z,22.90
2022-10-21T01:45:36.169Z,22.80
2022-10-21T01:46:55.637Z,22.80
2022-10-21T01:48:16.252Z,22.80
2022-10-21T01:49:28.600Z,22.70
2022-10-21T01:50:36.367Z,22.70
2022-10-21T01:51:39.761Z,22.70
2022-10-21T01:52:45.747Z,22.60
2022-10-21T01:54:04.675Z,22.60
2022-10-21T01:55:12.598Z,22.60
2022-10-21T01:56:16.437Z,22.60
2022-10-21T01:57:23.807Z,22.60
2022-10-21T01:58:31.220Z,22.50
2022-10-21T01:59:35.243Z,22.50
2022-10-21T02:00:38.943Z,22.50
2022-10-21T02:01:43.877Z,22.50
2022-10-21T02:02:48.987Z,22.50
2022-10-21T02:03:59.488Z,22.50
2022-10-21T02:05:20.714Z,22.40
2022-10-21T02:06:25.264Z,22.50
2022-10-21T02:07:30.590Z,22.50
2022-10-21T02:08:38.771Z,22.40
2022-10-21T02:09:43.519Z,22.50
2022-10-21T02:10:52.905Z,22.40
2022-10-21T02:11:59.443Z,22.40
2022-10-21T02:13:05.019Z,22.40
2022-10-21T02:14:45.374Z,22.40
2022-10-21T02:15:48.060Z,22.40
2022-10-21T02:16:52.458Z,22.50
2022-10-21T02:18:08.248Z,22.50
2022-10-21T02:19:19.645Z,22.40
2022-10-21T02:20:24.187Z,22.40
2022-10-21T02:21:30.635Z,22.40
2022-10-21T02:22:33.897Z,22.50
2022-10-21T02:23:53.550Z,22.40
2022-10-21T02:25:02.796Z,22.40
2022-10-21T02:26:05.389Z,22.50
2022-10-21T02:27:07.900Z,22.50
2022-10-21T02:28:11.692Z,22.50
2022-10-21T02:29:14.723Z,22.50
2022-10-21T02:30:17.221Z,22.40
2022-10-21T02:31:28.312Z,22.40
2022-10-21T02:32:47.170Z,22.40
2022-10-21T02:34:21.667Z,22.40
2022-10-21T02:35:43.902Z,22.40
2022-10-21T02:37:03.965Z,22.40
2022-10-21T02:38:20.571Z,22.40
2022-10-21T02:39:31.609Z,22.40
2022-10-21T02:40:38.319Z,22.40
2022-10-21T02:41:43.993Z,22.30
2022-10-21T02:42:52.162Z,22.30
2022-10-21T02:44:02.877Z,22.30
2022-10-21T02:45:06.345Z,22.30
2022-10-21T02:46:11.518Z,22.30
2022-10-21T02:47:16.331Z,22.30
2022-10-21T02:48:18.684Z,22.30
2022-10-21T02:49:20.984Z,22.20
2022-10-21T02:50:23.292Z,22.20
2022-10-21T02:51:25.647Z,22.30
2022-10-21T02:52:27.967Z,22.20
2022-10-21T02:53:30.338Z,22.30
2022-10-21T02:54:32.659Z,22.30
2022-10-21T02:55:34.922Z,22.30
2022-10-21T02:56:37.291Z,22.30
2022-10-21T02:57:40.099Z,22.30
2022-10-21T02:58:42.602Z,22.30
2022-10-21T02:59:44.864Z,22.30
2022-10-21T03:00:47.227Z,22.30
2022-10-21T03:01:49.643Z,22.30
2022-10-21T03:02:51.994Z,22.30
2022-10-21T03:03:54.313Z,22.30
2022-10-21T03:04:56.623Z,22.30
2022-10-21T03:05:58.999Z,22.30
2022-10-21T03:07:01.407Z,22.30
2022-10-21T03:08:03.939Z,22.30
2022-10-21T03:09:06.450Z,22.30
2022-10-21T03:10:09.103Z,22.40
2022-10-21T03:11:11.457Z,22.30
2022-10-21T03:12:13.867Z,22.30
2022-10-21T03:13:16.685Z,22.30
2022-10-21T03:14:19.048Z,22.40
2022-10-21T03:15:21.531Z,22.40
2022-10-21T03:16:23.846Z,22.30
2022-10-21T03:17:26.176Z,22.40
2022-10-21T03:18:28.507Z,22.40
2022-10-21T03:19:30.924Z,22.40
2022-10-21T03:20:33.228Z,22.40
2022-10-21T03:21:35.557Z,22.40
2022-10-21T03:22:37.874Z,22.40
2022-10-21T03:23:40.319Z,22.40
2022-10-21T03:24:42.639Z,22.40
2022-10-21T03:25:44.951Z,22.40
2022-10-21T03:26:47.278Z,22.40
2022-10-21T03:27:52.536Z,22.40
2022-10-21T03:28:54.828Z,22.40
2022-10-21T03:29:57.112Z,22.40
2022-10-21T03:30:59.418Z,22.40
2022-10-21T03:32:01.961Z,22.40
2022-10-21T03:33:04.446Z,22.40
2022-10-21T03:34:06.769Z,22.40
2022-10-21T03:35:09.217Z,22.40
2022-10-21T03:36:11.627Z,22.40
2022-10-21T03:37:13.971Z,22.40
2022-10-21T03:38:16.259Z,22.40
2022-10-21T03:39:18.613Z,22.40
2022-10-21T03:40:23.624Z,22.40
2022-10-21T03:41:25.944Z,22.40
2022-10-21T03:42:28.815Z,22.40
2022-10-21T03:43:33.126Z,22.40
2022-10-21T03:44:35.423Z,22.40
2022-10-21T03:45:37.758Z,22.40
2022-10-21T03:46:40.060Z,22.40
2022-10-21T03:47:42.364Z,22.40
2022-10-21T03:48:44.684Z,22.40
2022-10-21T03:49:47.033Z,22.30
2022-10-21T03:50:49.371Z,22.30
2022-10-21T03:51:51.775Z,22.30
2022-10-21T03:52:54.410Z,22.30
2022-10-21T03:53:56.867Z,22.30
2022-10-21T03:54:59.330Z,22.30
2022-10-21T03:56:01.759Z,22.30
2022-10-21T03:57:05.216Z,22.30
2022-10-21T03:58:07.558Z,22.30
2022-10-21T03:59:09.869Z,22.30
2022-10-21T04:01:20.404Z,22.30
2022-10-21T04:02:22.757Z,22.30
2022-10-21T04:03:25.128Z,22.30
2022-10-21T04:04:27.530Z,22.30
2022-10-21T04:05:29.917Z,22.30
2022-10-21T04:06:32.242Z,22.30
2022-10-21T04:07:34.606Z,22.30
2022-10-21T04:08:36.947Z,22.30
2022-10-21T04:09:39.441Z,22.30
2022-10-21T04:10:41.900Z,22.30
2022-10-21T04:11:44.284Z,22.20
2022-10-21T04:12:46.625Z,22.20
2022-10-21T04:13:48.934Z,22.20
2022-10-21T04:14:51.243Z,22.20
2022-10-21T04:16:01.687Z,22.20
2022-10-21T04:17:07.709Z,22.10
2022-10-21T04:18:10.368Z,22.10
2022-10-21T04:19:18.413Z,22.10
2022-10-21T04:20:20.935Z,22.10
2022-10-21T04:22:30.582Z,22.10
2022-10-21T04:23:32.869Z,22.10
2022-10-21T04:24:35.219Z,22.10
2022-10-21T04:25:37.653Z,22.10
2022-10-21T04:26:41.840Z,22.10
2022-10-21T04:27:44.132Z,22.00
2022-10-21T04:28:46.623Z,22.10
2022-10-21T04:29:48.945Z,22.10
2022-10-21T04:30:51.218Z,22.10
2022-10-21T04:31:53.512Z,22.00
2022-10-21T04:32:55.780Z,22.00
2022-10-21T04:33:58.080Z,22.00
2022-10-21T04:35:00.398Z,22.00
2022-10-21T04:36:02.865Z,22.00
2022-10-21T04:37:05.459Z,22.00
2022-10-21T04:38:07.849Z,22.00
2022-10-21T04:39:10.283Z,21.90
2022-10-21T04:40:12.700Z,21.90
2022-10-21T04:41:14.999Z,21.90
2022-10-21T04:42:17.390Z,21.90
2022-10-21T04:43:19.698Z,21.90
2022-10-21T04:44:22.313Z,21.90
2022-10-21T04:45:24.616Z,21.90
2022-10-21T04:46:26.911Z,21.90
2022-10-21T04:47:29.376Z,21.90
2022-10-21T04:48:31.790Z,21.90
2022-10-21T04:49:34.139Z,21.90
2022-10-21T04:50:36.460Z,21.90
2022-10-21T04:51:38.772Z,22.00
2022-10-21T04:52:41.512Z,21.90
2022-10-21T04:53:44.101Z,22.00
2022-10-21T04:54:46.388Z,22.00
2022-10-21T04:55:53.094Z,22.00
2022-10-21T04:56:55.471Z,22.00
2022-10-21T04:57:57.847Z,22.10
2022-10-21T04:59:00.332Z,22.10
2022-10-21T05:00:03.807Z,22.10
2022-10-21T05:01:06.208Z,22.20
2022-10-21T05:02:08.547Z,22.20
2022-10-21T05:03:10.926Z,22.30
2022-10-21T05:04:13.294Z,22.30
2022-10-21T05:05:15.681Z,22.40
2022-10-21T05:06:17.970Z,22.40
2022-10-21T05:07:20.353Z,22.50
2022-10-21T05:08:22.950Z,22.50
2022-10-21T05:09:25.363Z,22.60
2022-10-21T05:10:30.291Z,22.60
2022-10-21T05:11:33.306Z,22.70
2022-10-21T05:13:45.748Z,22.80
2022-10-21T05:14:48.235Z,22.80
2022-10-21T05:15:50.756Z,22.90
2022-10-21T05:16:56.036Z,22.90
2022-10-21T05:17:59.392Z,22.90
2022-10-21T05:19:02.398Z,22.90
2022-10-21T05:20:07.401Z,23.00
2022-10-21T05:21:09.857Z,23.00
2022-10-21T05:22:12.779Z,23.00
2022-10-21T05:23:15.226Z,23.10
2022-10-21T05:24:17.658Z,23.10
2022-10-21T05:25:21.385Z,23.10
2022-10-21T05:26:24.337Z,23.10
2022-10-21T05:27:27.815Z,23.20
2022-10-21T05:28:30.290Z,23.20
2022-10-21T05:29:33.423Z,23.20
2022-10-21T05:30:36.092Z,23.20
2022-10-21T05:31:39.538Z,23.20
2022-10-21T05:32:42.264Z,23.20
2022-10-21T05:33:44.668Z,23.30
2022-10-21T05:34:47.039Z,23.30
2022-10-21T05:35:57.022Z,23.30
2022-10-21T05:36:59.637Z,23.30
2022-10-21T05:38:03.170Z,23.30
2022-10-21T05:39:09.345Z,23.30
2022-10-21T05:40:12.880Z,23.40
2022-10-21T05:41:17.059Z,23.40
2022-10-21T05:42:22.139Z,23.40
2022-10-21T05:43:28.050Z,23.40
2022-10-21T05:44:30.512Z,23.40
2022-10-21T05:45:32.810Z,23.40
2022-10-21T05:46:35.106Z,23.40
2022-10-21T05:47:38.271Z,23.40
2022-10-21T05:48:40.624Z,23.40
2022-10-21T05:49:42.996Z,23.40
2022-10-21T05:50:51.350Z,23.40
2022-10-21T05:51:53.679Z,23.40
2022-10-21T05:52:58.822Z,23.40
2022-10-21T05:54:03.717Z,23.40
2022-10-21T05:55:06.979Z,23.50
2022-10-21T05:56:09.344Z,23.50
2022-10-21T05:57:11.716Z,23.50
2022-10-21T05:58:14.016Z,23.50
2022-10-21T05:59:16.440Z,23.50
2022-10-21T06:00:19.004Z,23.50
2022-10-21T06:01:21.375Z,23.50
2022-10-21T06:02:23.746Z,23.50
2022-10-21T06:03:31.540Z,23.60
2022-10-21T06:04:37.896Z,23.60
2022-10-21T06:05:41.308Z,23.60
2022-10-21T06:06:43.741Z,23.60
2022-10-21T06:07:46.101Z,23.60
2022-10-21T06:08:48.536Z,23.60
2022-10-21T06:09:50.896Z,23.60
2022-10-21T06:11:04.914Z,23.60
2022-10-21T06:12:07.242Z,23.60
2022-10-21T06:13:09.907Z,23.70
2022-10-21T06:14:12.257Z,23.70
2022-10-21T06:15:14.755Z,23.70
2022-10-21T06:16:17.150Z,23.70
2022-10-21T06:17:19.561Z,23.70
2022-10-21T06:18:22.105Z,23.70
2022-10-21T06:19:24.423Z,23.80
2022-10-21T06:20:26.784Z,23.70
2022-10-21T06:21:29.140Z,23.70
2022-10-21T06:22:31.589Z,23.70
2022-10-21T06:23:34.722Z,23.70
2022-10-21T06:24:37.051Z,23.70
2022-10-21T06:25:39.384Z,23.70
2022-10-21T06:26:42.312Z,23.70
2022-10-21T06:27:44.714Z,23.70
2022-10-21T06:28:47.164Z,23.60
2022-10-21T06:29:49.508Z,23.60
2022-10-21T06:30:51.945Z,23.60
2022-10-21T06:31:54.264Z,23.60
2022-10-21T06:32:56.583Z,23.60
2022-10-21T06:33:58.990Z,23.60
2022-10-21T06:35:01.871Z,23.60
2022-10-21T06:36:04.548Z,23.60
2022-10-21T06:37:07.015Z,23.60
2022-10-21T06:38:09.536Z,23.60
2022-10-21T06:39:11.918Z,23.60
2022-10-21T06:40:14.591Z,23.60
2022-10-21T06:41:18.633Z,23.60
2022-10-21T06:42:21.015Z,23.60
2022-10-21T06:43:23.448Z,23.70
2022-10-21T06:44:25.861Z,23.60
2022-10-21T06:45:28.167Z,23.70
2022-10-21T06:46:30.505Z,23.60
2022-10-21T06:47:32.822Z,23.70
2022-10-21T06:48:35.547Z,23.70
2022-10-21T06:49:38.104Z,23.70
2022-10-21T06:50:40.805Z,23.70
2022-10-21T06:51:44.026Z,23.70
2022-10-21T06:52:48.807Z,23.70
2022-10-21T06:53:59.655Z,23.70
2022-10-21T06:55:02.239Z,23.70
2022-10-21T06:56:08.024Z,23.60
2022-10-21T06:57:12.112Z,23.60
2022-10-21T06:58:14.538Z,23.60
2022-10-21T06:59:16.923Z,23.60
2022-10-21T07:00:19.518Z,23.60
2022-10-21T07:01:41.028Z,23.60
2022-10-21T07:02:50.493Z,23.60
2022-10-21T07:03:53.380Z,23.60
2022-10-21T07:04:57.752Z,23.60
2022-10-21T07:06:02.236Z,23.60
2022-10-21T07:07:05.029Z,23.70
2022-10-21T07:08:10.611Z,23.70
2022-10-21T07:09:15.876Z,23.70
2022-10-21T07:10:18.618Z,23.70
2022-10-21T07:11:21.617Z,23.80
2022-10-21T07:12:28.146Z,23.80
2022-10-21T07:13:32.462Z,23.80
2022-10-21T07:14:35.000Z,23.80
2022-10-21T07:15:37.476Z,23.80
2022-10-21T07:16:40.872Z,23.80
2022-10-21T07:17:43.396Z,23.80
2022-10-21T07:18:46.025Z,23.80
2022-10-21T07:19:48.965Z,23.80
2022-10-21T07:20:51.843Z,23.80
2022-10-21T07:21:54.422Z,23.80
2022-10-21T07:22:56.765Z,23.80
2022-10-21T07:24:00.597Z,23.80
2022-10-21T07:25:03.642Z,23.80
2022-10-21T07:26:07.687Z,23.80
2022-10-21T07:27:10.235Z,23.80
2022-10-21T07:28:14.231Z,23.80
2022-10-21T07:29:17.155Z,23.80
2022-10-21T07:30:23.411Z,23.80
2022-10-21T07:31:26.688Z,23.80
2022-10-21T07:32:29.182Z,23.80
2022-10-21T07:33:33.657Z,23.80
2022-10-21T07:34:36.072Z,23.80
2022-10-21T07:35:40.395Z,23.80
2022-10-21T07:36:54.967Z,23.80
2022-10-21T07:37:58.810Z,23.80
2022-10-21T07:39:06.502Z,23.90
2022-10-21T07:40:11.727Z,23.90
2022-10-21T07:41:21.044Z,23.90
2022-10-21T07:42:24.964Z,23.90
2022-10-21T07:43:37.681Z,23.90
2022-10-21T07:44:40.438Z,23.90
2022-10-21T07:45:43.224Z,23.90
2022-10-21T07:46:45.753Z,23.90
2022-10-21T07:47:48.568Z,23.90
2022-10-21T07:48:51.210Z,23.90
2022-10-21T07:49:53.803Z,23.90
2022-10-21T07:51:06.689Z,23.90
2022-10-21T07:52:10.411Z,23.90
2022-10-21T07:53:13.409Z,23.90
2022-10-21T07:54:17.946Z,23.90
2022-10-21T07:55:20.564Z,23.90
2022-10-21T07:56:30.293Z,23.90
2022-10-21T07:57:33.650Z,23.80
2022-10-21T07:58:39.234Z,23.80
2022-10-21T07:59:41.623Z,23.90
2022-10-21T08:00:44.607Z,23.90
2022-10-21T08:02:58.483Z,23.80
2022-10-21T08:04:03.281Z,23.90
2022-10-21T08:05:06.782Z,23.90
2022-10-21T08:06:11.110Z,23.90
2022-10-21T08:07:16.884Z,23.90
2022-10-21T08:08:24.220Z,23.90
2022-10-21T08:09:27.948Z,23.90
2022-10-21T08:10:30.773Z,23.90
2022-10-21T08:11:34.054Z,23.90
2022-10-21T08:12:36.702Z,23.90
2022-10-21T08:13:41.523Z,23.90
2022-10-21T08:14:43.944Z,23.90
2022-10-21T08:15:53.114Z,23.90
2022-10-21T08:16:55.602Z,23.90
2022-10-21T08:18:00.363Z,23.90
2022-10-21T08:19:04.503Z,23.90
2022-10-21T08:20:07.675Z,23.90
2022-10-21T08:21:10.525Z,24.00
2022-10-21T08:22:13.040Z,23.90
2022-10-21T08:23:18.352Z,24.00
2022-10-21T08:24:21.292Z,24.00
2022-10-21T08:25:23.732Z,24.00
2022-10-21T08:26:26.252Z,24.00
2022-10-21T08:27:30.178Z,24.00
2022-10-21T08:28:32.630Z,24.00
2022-10-21T08:29:37.692Z,24.00
2022-10-21T08:30:43.690Z,24.00
2022-10-21T08:31:46.590Z,24.00
2022-10-21T08:32:49.020Z,24.00
2022-10-21T08:33:51.510Z,24.00
2022-10-21T08:34:53.962Z,24.00
2022-10-21T08:35:56.414Z,24.00
2022-10-21T08:36:59.048Z,24.00
2022-10-21T08:38:01.691Z,24.00
2022-10-21T08:39:05.199Z,24.00
2022-10-21T08:40:09.843Z,24.00
2022-10-21T08:41:30.500Z,24.00
2022-10-21T08:42:33.873Z,24.00
2022-10-21T08:43:38.326Z,24.00
2022-10-21T08:45:03.294Z,24.00
2022-10-21T08:46:13.403Z,24.00
2022-10-21T08:47:35.862Z,24.00
2022-10-21T08:48:45.268Z,24.00
2022-10-21T08:50:11.374Z,24.00
2022-10-21T08:51:25.179Z,24.00
2022-10-21T08:53:05.996Z,24.00
2022-10-21T08:54:40.251Z,24.00
2022-10-21T08:55:44.680Z,24.00
2022-10-21T08:56:50.424Z,24.00
2022-10-21T08:57:54.538Z,24.00
2022-10-21T08:58:57.280Z,24.00
2022-10-21T09:00:00.988Z,24.10
2022-10-21T09:01:14.919Z,24.10
2022-10-21T09:02:42.919Z,24.10
2022-10-21T09:04:08.070Z,24.10
2022-10-21T09:05:29.382Z,24.10
2022-10-21T09:06:48.626Z,24.10
2022-10-21T09:08:04.590Z,24.10
2022-10-21T09:09:25.531Z,24.10
2022-10-21T09:10:39.595Z,24.10
2022-10-21T09:12:05.162Z,24.10
2022-10-21T09:13:17.474Z,24.10
2022-10-21T09:14:40.891Z,24.10
2022-10-21T09:15:52.390Z,24.10
2022-10-21T09:17:23.038Z,24.10
2022-10-21T09:18:39.017Z,24.10
2022-10-21T09:19:56.367Z,24.10
2022-10-21T09:21:05.641Z,24.10
2022-10-21T09:22:35.314Z,24.10
2022-10-21T09:23:52.182Z,24.10
2022-10-21T09:25:00.623Z,24.10
2022-10-21T09:26:30.343Z,24.10
2022-10-21T09:27:51.354Z,24.10
2022-10-21T09:28:55.451Z,24.10
2022-10-21T09:30:01.996Z,24.10
2022-10-21T09:31:15.632Z,24.10
2022-10-21T09:32:19.354Z,24.10
2022-10-21T09:33:33.250Z,24.10
2022-10-21T09:34:43.818Z,24.10
2022-10-21T09:35:51.599Z,24.10
2022-10-21T09:36:54.865Z,24.10
2022-10-21T09:38:03.479Z,24.10
2022-10-21T09:39:24.241Z,24.10
2022-10-21T09:40:29.537Z,24.10
2022-10-21T09:41:38.765Z,24.10
2022-10-21T09:42:48.690Z,24.10
2022-10-21T09:43:51.464Z,24.10
2022-10-21T09:44:53.927Z,24.10
2022-10-21T09:45:57.535Z,24.10
2022-10-21T09:46:59.884Z,24.10
2022-10-21T09:48:20.192Z,24.10
2022-10-21T09:50:06.387Z,24.10
2022-10-21T09:51:00.640Z,24.00
2022-10-21T09:52:05.563Z,24.00
2022-10-21T09:53:21.327Z,23.90
2022-10-21T09:54:31.858Z,23.90
2022-10-21T09:55:34.935Z,23.90
2022-10-21T09:56:49.932Z,23.90
2022-10-21T09:57:57.484Z,23.90
2022-10-21T09:59:09.146Z,23.90
2022-10-21T10:00:13.917Z,23.90
2022-10-21T10:01:22.555Z,23.90
2022-10-21T10:02:36.623Z,23.90
2022-10-21T10:03:45.721Z,24.00
2022-10-21T10:04:48.085Z,24.00
2022-10-21T10:05:51.461Z,24.00
2022-10-21T10:06:54.876Z,24.00
2022-10-21T10:07:57.335Z,24.00
2022-10-21T10:09:15.479Z,24.00
2022-10-21T10:10:34.050Z,24.00
2022-10-21T10:11:53.661Z,24.00
2022-10-21T10:12:58.019Z,24.00
2022-10-21T10:14:34.383Z,24.10
2022-10-21T10:15:37.504Z,24.00
2022-10-21T10:16:39.972Z,24.00
2022-10-21T10:17:42.494Z,23.90
2022-10-21T10:18:45.476Z,23.90
2022-10-21T10:20:06.040Z,23.90
2022-10-21T10:21:22.509Z,23.90
2022-10-21T10:22:24.865Z,23.80
2022-10-21T10:23:27.158Z,23.90
2022-10-21T10:24:31.828Z,23.90
2022-10-21T10:25:37.391Z,23.90
2022-10-21T10:26:42.289Z,23.90
2022-10-21T10:27:53.684Z,23.90
2022-10-21T10:28:59.533Z,23.90
2022-10-21T10:30:02.668Z,23.90
2022-10-21T10:31:05.412Z,23.90
2022-10-21T10:32:15.313Z,23.90
2022-10-21T10:33:20.038Z,23.90
2022-10-21T10:34:32.749Z,24.00
2022-10-21T10:35:37.278Z,23.90
2022-10-21T10:36:40.797Z,24.00
2022-10-21T10:37:48.059Z,24.00
2022-10-21T10:38:56.304Z,24.00
2022-10-21T10:40:00.830Z,24.00
2022-10-21T10:41:11.590Z,24.00
2022-10-21T10:42:19.635Z,24.00
2022-10-21T10:43:28.873Z,24.00
2022-10-21T10:44:39.406Z,24.00
2022-10-21T10:45:53.727Z,24.00
2022-10-21T10:46:58.298Z,24.00
2022-10-21T10:48:05.942Z,24.00
2022-10-21T10:49:13.987Z,24.10
2022-10-21T10:50:38.263Z,24.10
2022-10-21T10:51:42.468Z,24.10
2022-10-21T10:52:44.794Z,24.10
2022-10-21T10:53:59.758Z,24.10
2022-10-21T10:55:10.967Z,24.10
2022-10-21T10:56:22.158Z,24.10
2022-10-21T10:57:34.330Z,24.10
2022-10-21T10:59:09.049Z,24.20
2022-10-21T11:00:22.375Z,24.10
2022-10-21T11:01:34.538Z,24.00
2022-10-21T11:02:50.654Z,24.00
2022-10-21T11:03:59.154Z,23.90
2022-10-21T11:05:07.765Z,24.00
2022-10-21T11:06:21.624Z,23.90
2022-10-21T11:07:47.302Z,23.90
2022-10-21T11:08:55.476Z,24.00
2022-10-21T11:10:07.993Z,23.90
2022-10-21T11:11:49.020Z,24.00
2022-10-21T11:12:51.542Z,24.00
2022-10-21T11:13:54.195Z,24.00
2022-10-21T11:15:00.297Z,24.00
2022-10-21T11:16:12.160Z,24.00
2022-10-21T11:17:18.919Z,24.00
2022-10-21T11:18:39.690Z,24.00
2022-10-21T11:19:56.852Z,24.00
2022-10-21T11:21:37.959Z,24.00
2022-10-21T11:22:59.795Z,24.10
2022-10-21T11:24:19.973Z,24.10
2022-10-21T11:25:25.175Z,24.10
2022-10-21T11:26:57.551Z,24.10
2022-10-21T11:28:12.208Z,24.10
2022-10-21T11:29:26.468Z,24.10
2022-10-21T11:30:43.556Z,24.10
2022-10-21T11:32:10.672Z,24.10
2022-10-21T11:33:39.736Z,24.20
2022-10-21T11:34:50.941Z,24.20
2022-10-21T11:36:17.445Z,24.20
2022-10-21T11:37:27.528Z,24.20
2022-10-21T11:38:54.373Z,24.20
2022-10-21T11:40:02.397Z,24.20
2022-10-21T11:41:30.898Z,24.20
2022-10-21T11:42:41.225Z,24.20
2022-10-21T11:43:54.280Z,24.20
2022-10-21T11:45:20.605Z,24.20
2022-10-21T11:46:37.940Z,24.20
2022-10-21T11:47:43.362Z,24.20
2022-10-21T11:49:13.599Z,24.20
2022-10-21T11:52:07.151Z,24.00
2022-10-21T11:53:41.634Z,23.90
2022-10-21T11:55:10.890Z,23.90
2022-10-21T11:56:28.275Z,23.80
2022-10-21T11:57:49.056Z,23.80
2022-10-21T11:59:12.724Z,23.80
2022-10-21T12:00:24.195Z,23.90
2022-10-21T12:01:42.328Z,23.90
2022-10-21T12:02:57.172Z,23.90
2022-10-21T12:04:21.881Z,23.90
2022-10-21T12:05:34.239Z,23.80
2022-10-21T12:06:55.245Z,23.80
2022-10-21T12:08:33.443Z,23.80
2022-10-21T12:09:44.310Z,23.70
2022-10-21T12:10:52.523Z,23.70
2022-10-21T12:12:19.224Z,23.70
2022-10-21T12:13:28.015Z,23.70
2022-10-21T12:14:36.691Z,23.60
2022-10-21T12:15:44.978Z,23.60
2022-10-21T12:16:49.675Z,23.60
2022-10-21T12:17:53.279Z,23.60
2022-10-21T12:19:03.191Z,23.60
2022-10-21T12:20:08.324Z,23.60
2022-10-21T12:21:17.589Z,23.60
2022-10-21T12:22:20.932Z,23.60
2022-10-21T12:23:30.421Z,23.60
2022-10-21T12:24:51.665Z,23.60
2022-10-21T12:26:18.328Z,23.60
2022-10-21T12:27:41.839Z,23.60
2022-10-21T12:29:07.070Z,23.50
2022-10-21T12:30:13.535Z,23.50
2022-10-21T12:31:30.982Z,23.50
2022-10-21T12:33:11.394Z,23.50
2022-10-21T12:34:14.379Z,23.50
2022-10-21T12:35:25.821Z,23.50
2022-10-21T12:36:43.475Z,23.50
2022-10-21T12:37:48.567Z,23.50
2022-10-21T12:38:59.786Z,23.50
2022-10-21T12:40:16.088Z,23.50
2022-10-21T12:41:34.532Z,23.50
2022-10-21T12:42:37.338Z,23.50
2022-10-21T12:43:39.688Z,23.50
2022-10-21T12:44:52.891Z,23.50
2022-10-21T12:46:07.641Z,23.50
2022-10-21T12:47:33.824Z,23.50
2022-10-21T12:48:43.817Z,23.60
2022-10-21T12:49:46.337Z,23.60
2022-10-21T12:51:01.602Z,23.60
2022-10-21T12:52:23.406Z,23.60
2022-10-21T12:53:40.185Z,23.60
2022-10-21T12:54:43.027Z,23.60
2022-10-21T12:55:51.425Z,23.60
2022-10-21T12:57:04.345Z,23.70
2022-10-21T12:58:37.678Z,23.70
2022-10-21T12:59:42.843Z,23.70
2022-10-21T13:00:52.138Z,23.70
2022-10-21T13:02:06.598Z,23.70
2022-10-21T13:03:14.238Z,23.70
2022-10-21T13:04:39.314Z,23.80
2022-10-21T13:05:41.811Z,23.80
2022-10-21T13:06:52.476Z,23.80
2022-10-21T13:08:22.879Z,23.80
2022-10-21T13:09:40.280Z,23.80
2022-10-21T13:11:02.527Z,23.80
2022-10-21T13:12:16.195Z,23.80
2022-10-21T13:13:45.675Z,23.80
2022-10-21T13:14:57.004Z,23.80
2022-10-21T13:16:00.418Z,23.80
2022-10-21T13:17:53.892Z,23.80
2022-10-21T13:19:23.739Z,23.80
2022-10-21T13:20:26.084Z,23.80
2022-10-21T13:21:37.347Z,23.80
2022-10-21T13:22:42.960Z,23.90
2022-10-21T13:23:53.774Z,23.80
2022-10-21T13:24:56.192Z,23.90
2022-10-21T13:26:15.675Z,23.90
2022-10-21T13:27:26.695Z,23.80
2022-10-21T13:28:29.072Z,23.90
2022-10-21T13:29:37.294Z,23.80
2022-10-21T13:30:48.098Z,23.80
2022-10-21T13:32:19.374Z,23.80
2022-10-21T13:33:27.375Z,23.80
2022-10-21T13:34:30.211Z,23.80
2022-10-21T13:35:41.374Z,23.80
2022-10-21T13:36:44.071Z,23.80
2022-10-21T13:38:15.199Z,23.80
2022-10-21T13:39:36.409Z,23.80
2022-10-21T13:40:50.695Z,23.80
2022-10-21T13:41:59.871Z,23.80
2022-10-21T13:43:08.088Z,23.80
2022-10-21T13:44:31.858Z,23.90
2022-10-21T13:45:49.362Z,23.90
2022-10-21T13:46:51.879Z,23.90
2022-10-21T13:48:13.965Z,23.80
2022-10-21T13:49:31.986Z,23.80
2022-10-21T13:50:40.157Z,23.80
2022-10-21T13:51:46.284Z,23.80
2022-10-21T13:52:48.590Z,23.80
2022-10-21T13:53:55.661Z,23.80
2022-10-21T13:55:03.642Z,23.70
2022-10-21T13:56:08.760Z,23.80
2022-10-21T13:57:16.876Z,23.80
2022-10-21T13:58:24.083Z,23.70
2022-10-21T13:59:29.835Z,23.70
2022-10-21T14:00:32.593Z,23.70
2022-10-21T14:01:47.025Z,23.70
2022-10-21T14:02:52.826Z,23.70
2022-10-21T14:04:11.461Z,23.70
2022-10-21T14:05:34.969Z,23.70
2022-10-21T14:06:40.670Z,23.70
2022-10-21T14:07:43.395Z,23.70
2022-10-21T14:08:47.653Z,23.70
2022-10-21T14:09:56.435Z,23.70
2022-10-21T14:11:07.892Z,23.70
2022-10-21T14:12:22.381Z,23.70
2022-10-21T14:13:28.870Z,23.60
2022-10-21T14:14:33.381Z,23.60
2022-10-21T14:15:41.668Z,23.70
2022-10-21T14:16:50.705Z,23.60
2022-10-21T14:17:57.907Z,23.60
2022-10-21T14:19:06.228Z,23.60
2022-10-21T14:20:16.269Z,23.60
2022-10-21T14:21:22.030Z,23.60
2022-10-21T14:22:26.717Z,23.60
2022-10-21T14:23:30.088Z,23.60
2022-10-21T14:24:45.350Z,23.60
2022-10-21T14:25:49.635Z,23.70
2022-10-21T14:26:52.592Z,23.70
2022-10-21T14:27:55.650Z,23.70
2022-10-21T14:29:04.766Z,23.70
2022-10-21T14:30:10.262Z,23.70
2022-10-21T14:31:13.868Z,23.80
2022-10-21T14:32:20.045Z,23.80
2022-10-21T14:33:26.469Z,23.80
2022-10-21T14:34:32.776Z,23.80
2022-10-21T14:35:35.251Z,23.80
2022-10-21T14:37:11.154Z,23.80
2022-10-21T14:38:29.458Z,23.80
2022-10-21T14:39:33.133Z,23.80
2022-10-21T14:40:41.367Z,23.80
2022-10-21T14:41:45.971Z,23.80
2022-10-21T14:42:52.512Z,23.80
2022-10-21T14:43:58.652Z,23.80
2022-10-21T14:45:03.880Z,23.80
2022-10-21T14:46:09.427Z,23.80